createdAt,value
2023-05-04T00:02:09.456Z,96806.28
2023-05-04T00:04:36.436Z,96813.53
2023-05-04T00:07:02.890Z,96813.53
2023-05-04T00:09:29.254Z,96828.38
2023-05-04T00:11:56.021Z,96834.47
2023-05-04T00:14:22.459Z,96842.88
2023-05-04T00:16:48.905Z,96845.03
2023-05-04T00:19:15.764Z,96849.97
2023-05-04T00:21:42.092Z,96849.16
2023-05-04T00:24:08.568Z,96849.13
2023-05-04T00:26:35.364Z,96851.78
2023-05-04T00:29:01.704Z,96847.16
2023-05-04T00:31:28.839Z,96851.09
2023-05-04T00:33:55.757Z,96909.69
2023-05-04T00:36:22.163Z,96929.91
2023-05-04T00:38:54.619Z,96939.97
2023-05-04T00:41:22.488Z,96939.44
2023-05-04T00:43:48.988Z,97103.81
2023-05-04T00:46:15.501Z,97086.00
2023-05-04T00:48:44.531Z,97067.88
2023-05-04T00:51:11.932Z,97047.97
2023-05-04T00:53:39.109Z,97028.88
2023-05-04T00:56:07.921Z,96983.47
2023-05-04T00:58:35.168Z,96965.53
2023-05-04T01:01:03.240Z,96954.97
2023-05-04T01:03:31.919Z,96953.31
2023-05-04T01:06:14.919Z,96947.56
2023-05-04T01:08:52.248Z,96935.53
2023-05-04T01:11:25.198Z,96938.63
2023-05-04T01:13:52.675Z,96930.88
2023-05-04T01:16:19.479Z,96932.72
2023-05-04T01:18:46.000Z,96939.25
2023-05-04T01:21:12.698Z,96938.75
2023-05-04T01:23:39.033Z,96937.41
2023-05-04T01:26:23.229Z,96935.75
2023-05-04T01:28:55.968Z,96942.69
2023-05-04T01:31:26.666Z,96954.16
2023-05-04T01:33:54.551Z,96953.34
2023-05-04T01:36:22.072Z,96951.53
2023-05-04T01:38:49.281Z,96955.47
2023-05-04T01:41:16.174Z,96954.81
2023-05-04T01:43:42.696Z,96958.22
2023-05-04T01:46:09.060Z,96964.97
2023-05-04T01:48:35.872Z,96968.56
2023-05-04T01:51:02.216Z,96981.09
2023-05-04T01:53:28.562Z,96985.84
2023-05-04T01:55:55.382Z,96992.56
2023-05-04T01:58:21.903Z,96995.44
2023-05-04T02:00:48.243Z,97003.00
2023-05-04T02:03:14.704Z,97001.66
2023-05-04T02:05:41.064Z,97004.47
2023-05-04T02:08:07.937Z,97013.38
2023-05-04T02:10:34.826Z,97018.97
2023-05-04T02:13:01.240Z,97019.22
2023-05-04T02:15:28.010Z,97016.31
2023-05-04T02:17:54.533Z,97025.88
2023-05-04T02:20:20.869Z,97028.72
2023-05-04T02:22:47.667Z,97026.78
2023-05-04T02:25:14.016Z,97031.50
2023-05-04T02:27:40.701Z,97034.75
2023-05-04T02:30:08.185Z,97032.13
2023-05-04T02:32:34.568Z,97036.09
2023-05-04T02:35:00.934Z,97042.47
2023-05-04T02:37:27.719Z,97042.47
2023-05-04T02:39:54.037Z,97047.22
2023-05-04T02:42:20.760Z,97043.34
2023-05-04T02:44:47.494Z,97047.81
2023-05-04T02:47:14.236Z,97053.06
2023-05-04T02:49:40.635Z,97058.31
2023-05-04T02:52:07.505Z,97053.06
2023-05-04T02:54:33.939Z,97062.88
2023-05-04T02:57:00.320Z,97046.75
2023-05-04T02:59:27.013Z,97047.88
2023-05-04T03:01:53.455Z,97041.09
2023-05-04T03:04:20.627Z,97041.28
2023-05-04T03:06:47.858Z,97031.78
2023-05-04T03:09:14.372Z,97027.22
2023-05-04T03:11:40.708Z,97026.75
2023-05-04T03:14:07.881Z,97039.09
2023-05-04T03:16:34.307Z,97033.53
2023-05-04T03:19:00.695Z,97037.94
2023-05-04T03:21:27.393Z,97044.69
2023-05-04T03:23:53.725Z,97047.31
2023-05-04T03:26:20.074Z,97048.84
2023-05-04T03:28:47.067Z,97051.63
2023-05-04T03:31:13.444Z,97041.00
2023-05-04T03:33:39.787Z,97051.66
2023-05-04T03:36:06.694Z,97056.91
2023-05-04T03:38:33.189Z,97059.72
2023-05-04T03:40:59.518Z,97069.25
2023-05-04T03:43:26.416Z,97076.22
2023-05-04T03:45:52.831Z,97086.31
2023-05-04T03:48:19.204Z,97098.09
2023-05-04T03:50:46.041Z,97100.25
2023-05-04T03:53:12.368Z,97107.41
2023-05-04T03:55:38.992Z,97109.34
2023-05-04T03:58:05.909Z,97117.06
2023-05-04T04:00:32.351Z,97133.66
2023-05-04T04:02:59.200Z,97151.34
2023-05-04T04:05:26.100Z,97169.59
2023-05-04T04:07:52.419Z,97179.38
2023-05-04T04:10:18.872Z,97207.50
2023-05-04T04:12:47.696Z,97210.06
2023-05-04T04:15:14.083Z,97227.63
2023-05-04T04:17:40.445Z,97233.47
2023-05-04T04:20:08.196Z,97240.13
2023-05-04T04:22:36.130Z,97241.75
2023-05-04T04:25:03.103Z,97262.91
2023-05-04T04:27:29.434Z,97259.97
2023-05-04T04:29:55.764Z,97265.88
2023-05-04T04:32:22.965Z,97277.50
2023-05-04T04:34:49.346Z,97283.75
2023-05-04T04:37:16.067Z,97301.94
2023-05-04T04:39:42.415Z,97321.56
2023-05-04T04:42:08.756Z,96378.06
2023-05-04T04:44:35.477Z,96373.47
2023-05-04T04:47:02.852Z,96370.50
2023-05-04T04:49:29.263Z,96365.56
2023-05-04T04:51:55.587Z,96365.69
2023-05-04T04:54:22.404Z,96341.91
2023-05-04T04:56:48.754Z,96336.97
2023-05-04T04:59:15.098Z,96343.69
2023-05-04T05:01:44.505Z,96334.84
2023-05-04T05:04:10.846Z,96335.78
2023-05-04T05:06:37.189Z,96341.75
2023-05-04T05:09:04.276Z,96330.53
2023-05-04T05:11:30.651Z,96327.94
2023-05-04T05:13:56.999Z,96323.44
2023-05-04T05:16:24.270Z,96326.19
2023-05-04T05:18:50.825Z,96315.63
2023-05-04T05:21:17.520Z,96316.63
2023-05-04T05:23:44.257Z,96314.78
2023-05-04T05:26:10.740Z,96313.69
2023-05-04T05:28:37.677Z,96302.53
2023-05-04T05:31:04.578Z,96291.06
2023-05-04T05:33:30.937Z,96275.25
2023-05-04T05:35:57.865Z,96260.34
2023-05-04T05:38:24.188Z,96254.16
2023-05-04T05:40:50.563Z,96224.53
2023-05-04T05:43:17.193Z,96210.66
2023-05-04T05:45:43.568Z,96177.63
2023-05-04T05:48:10.294Z,96147.19
2023-05-04T05:50:37.050Z,96113.03
2023-05-04T05:53:03.419Z,96051.25
2023-05-04T05:55:30.298Z,95994.28
2023-05-04T05:57:56.623Z,95955.56
2023-05-04T06:00:22.954Z,95887.00
2023-05-04T06:02:49.848Z,95840.50
2023-05-04T06:05:16.350Z,95819.28
2023-05-04T06:07:42.677Z,95770.13
2023-05-04T06:10:09.980Z,95750.34
2023-05-04T06:12:36.396Z,95772.13
2023-05-04T06:15:02.884Z,95810.38
2023-05-04T06:17:29.630Z,95829.44
2023-05-04T06:19:56.249Z,95909.53
2023-05-04T06:22:22.650Z,95928.69
2023-05-04T06:24:49.357Z,95983.22
2023-05-04T06:27:15.839Z,96034.66
2023-05-04T06:29:42.629Z,96076.84
2023-05-04T06:32:10.198Z,96156.53
2023-05-04T06:34:37.131Z,96188.78
2023-05-04T06:37:03.902Z,96201.38
2023-05-04T06:39:30.746Z,96244.53
2023-05-04T06:41:57.165Z,96271.88
2023-05-04T06:44:24.055Z,96270.75
2023-05-04T06:46:50.366Z,96290.78
2023-05-04T06:49:17.930Z,96356.84
2023-05-04T06:51:44.841Z,96373.97
2023-05-04T06:54:11.944Z,96323.75
2023-05-04T06:56:39.625Z,96316.19
2023-05-04T06:59:07.414Z,96329.53
2023-05-04T07:01:33.812Z,96351.91
2023-05-04T07:04:00.421Z,96334.03
2023-05-04T07:06:27.184Z,96316.63
2023-05-04T07:08:53.528Z,96316.59
2023-05-04T07:11:19.897Z,96293.84
2023-05-04T07:13:47.271Z,96291.94
2023-05-04T07:16:13.599Z,96300.41
2023-05-04T07:18:40.351Z,96330.06
2023-05-04T07:21:26.787Z,96355.66
2023-05-04T07:23:54.973Z,96435.22
2023-05-04T07:26:22.455Z,96456.09
2023-05-04T07:28:48.812Z,96444.72
2023-05-04T07:31:16.449Z,96456.03
2023-05-04T07:33:43.454Z,96445.59
2023-05-04T07:36:09.923Z,96509.84
2023-05-04T07:38:37.627Z,96573.16
2023-05-04T07:41:04.149Z,96612.75
2023-05-04T07:43:30.600Z,96725.94
2023-05-04T07:45:57.233Z,95380.09
2023-05-04T07:48:26.168Z,95142.53
2023-05-04T07:50:53.684Z,95148.13
2023-05-04T07:53:21.315Z,95173.78
2023-05-04T07:55:48.311Z,95184.03
2023-05-04T07:58:15.486Z,95149.31
2023-05-04T08:00:41.955Z,95018.19
2023-05-04T08:03:08.310Z,95313.47
2023-05-04T08:05:34.690Z,95410.19
2023-05-04T08:08:01.761Z,95472.78
2023-05-04T08:10:29.055Z,95558.13
2023-05-04T08:12:55.793Z,95672.69
2023-05-04T08:15:22.257Z,95710.88
2023-05-04T08:17:48.711Z,95738.34
2023-05-04T08:20:15.569Z,95812.09
2023-05-04T08:22:41.909Z,95842.88
2023-05-04T08:25:09.433Z,95914.00
2023-05-04T08:27:36.340Z,95947.06
2023-05-04T08:30:02.947Z,95942.97
2023-05-04T08:32:32.493Z,95936.72
2023-05-04T08:34:59.541Z,95935.88
2023-05-04T08:37:26.298Z,95995.78
2023-05-04T08:39:53.143Z,96027.84
2023-05-04T08:42:32.841Z,96042.81
2023-05-04T08:44:59.887Z,96044.44
2023-05-04T08:47:27.716Z,96019.91
2023-05-04T08:49:55.311Z,96039.84
2023-05-04T08:52:26.500Z,96021.06
2023-05-04T08:54:58.288Z,96021.72
2023-05-04T08:57:26.297Z,96036.22
2023-05-04T08:59:53.995Z,96068.88
2023-05-04T09:02:24.639Z,96075.63
2023-05-04T09:04:53.081Z,96115.09
2023-05-04T09:07:20.727Z,96130.66
2023-05-04T09:09:48.365Z,96093.34
2023-05-04T09:12:15.304Z,96130.47
2023-05-04T09:14:41.638Z,96116.81
2023-05-04T09:17:26.093Z,96144.09
2023-05-04T09:20:01.000Z,96182.00
2023-05-04T09:22:29.547Z,96184.41
2023-05-04T09:25:11.293Z,96188.66
2023-05-04T09:27:39.617Z,96213.81
2023-05-04T09:30:06.783Z,96213.53
2023-05-04T09:32:47.133Z,96212.66
2023-05-04T09:35:25.360Z,96210.97
2023-05-04T09:37:59.084Z,96288.91
2023-05-04T09:40:32.593Z,96288.06
2023-05-04T09:42:59.626Z,96293.59
2023-05-04T09:45:26.249Z,96321.38
2023-05-04T09:47:54.170Z,96304.69
2023-05-04T09:50:23.666Z,96312.31
2023-05-04T09:52:50.379Z,96315.78
2023-05-04T09:55:20.061Z,96328.03
2023-05-04T09:57:49.425Z,96331.41
2023-05-04T10:00:17.786Z,96321.66
2023-05-04T10:02:46.918Z,96328.75
2023-05-04T10:05:18.030Z,96336.22
2023-05-04T10:07:45.320Z,96339.06
2023-05-04T10:10:14.200Z,96343.81
2023-05-04T10:12:41.111Z,96340.03
2023-05-04T10:15:09.071Z,96334.44
2023-05-04T10:18:09.607Z,96335.69
2023-05-04T10:21:00.233Z,96337.84
2023-05-04T10:23:45.396Z,96345.72
2023-05-04T10:26:40.353Z,96345.72
2023-05-04T10:31:45.501Z,96342.81
2023-05-04T10:34:12.059Z,96341.94
2023-05-04T10:36:40.295Z,96335.69
2023-05-04T10:39:19.297Z,96323.59
2023-05-04T10:42:01.808Z,96340.41
2023-05-04T10:44:29.205Z,96348.13
2023-05-04T10:47:03.316Z,96345.75
2023-05-04T10:49:30.247Z,96352.81
2023-05-04T10:52:16.287Z,96340.00
2023-05-04T10:54:43.535Z,96339.72
2023-05-04T10:57:12.488Z,96341.91
2023-05-04T10:59:40.359Z,96333.53
2023-05-04T11:02:07.542Z,96334.91
2023-05-04T11:04:34.619Z,96338.19
2023-05-04T11:07:03.722Z,96338.84
2023-05-04T11:09:39.425Z,96333.06
2023-05-04T11:12:07.780Z,96324.66
2023-05-04T11:14:41.092Z,96323.69
2023-05-04T11:17:26.159Z,96326.19
2023-05-04T11:19:54.204Z,96323.34
2023-05-04T11:22:20.861Z,96328.75
2023-05-04T11:24:50.713Z,96330.94
2023-05-04T11:27:23.086Z,96326.97
2023-05-04T11:30:00.858Z,96323.97
2023-05-04T11:32:38.317Z,96318.72
2023-05-04T11:35:09.105Z,96322.38
2023-05-04T11:37:41.175Z,96314.28
2023-05-04T11:40:14.997Z,96309.19
2023-05-04T11:42:43.142Z,96314.16
2023-05-04T11:45:34.676Z,96312.22
2023-05-04T11:48:02.367Z,96305.31
2023-05-04T11:50:29.224Z,96314.47
2023-05-04T11:53:06.846Z,96302.97
2023-05-04T11:55:33.389Z,96302.66
2023-05-04T11:58:01.229Z,96297.34
2023-05-04T12:00:41.908Z,96290.47
2023-05-04T12:03:12.171Z,96303.50
2023-05-04T12:05:46.242Z,96300.34
2023-05-04T12:08:42.325Z,96284.38
2023-05-04T12:11:16.544Z,96302.59
2023-05-04T12:13:45.115Z,96302.41
2023-05-04T12:16:20.495Z,96304.88
2023-05-04T12:18:48.005Z,96300.97
2023-05-04T12:21:17.542Z,96311.66
2023-05-04T12:23:45.321Z,96296.59
2023-05-04T12:26:12.501Z,96293.00
2023-05-04T12:28:41.651Z,96297.72
2023-05-04T12:31:08.711Z,96297.59
2023-05-04T12:33:35.974Z,96295.03
2023-05-04T12:36:04.830Z,96297.94
2023-05-04T12:38:32.193Z,96292.19
2023-05-04T12:41:00.659Z,96291.44
2023-05-04T12:43:27.012Z,96285.78
2023-05-04T12:45:54.041Z,96284.84
2023-05-04T12:48:20.894Z,96284.03
2023-05-04T12:50:48.877Z,96289.56
2023-05-04T12:53:15.839Z,96283.13
2023-05-04T12:55:42.783Z,96266.34
2023-05-04T12:58:09.428Z,96269.25
2023-05-04T13:00:37.731Z,96269.34
2023-05-04T13:03:05.615Z,96268.56
2023-05-04T13:05:32.093Z,96266.38
2023-05-04T13:07:59.565Z,96255.50
2023-05-04T13:10:25.898Z,96251.81
2023-05-04T13:12:52.521Z,96248.06
2023-05-04T13:15:19.213Z,96249.22
2023-05-04T13:17:45.610Z,96241.91
2023-05-04T13:20:13.052Z,96247.19
2023-05-04T13:22:40.654Z,96237.03
2023-05-04T13:25:07.698Z,96254.59
2023-05-04T13:27:34.618Z,96246.72
2023-05-04T13:30:03.282Z,96242.75
2023-05-04T13:32:30.793Z,96247.06
2023-05-04T13:34:57.448Z,96238.47
2023-05-04T13:37:24.230Z,96232.25
2023-05-04T13:39:50.772Z,96234.22
2023-05-04T13:42:17.868Z,96238.31
2023-05-04T13:44:45.582Z,96228.34
2023-05-04T13:47:17.489Z,96225.66
2023-05-04T13:49:48.621Z,96218.16
2023-05-04T13:52:17.402Z,96211.38
2023-05-04T13:54:43.813Z,96209.59
2023-05-04T13:57:10.351Z,96204.97
2023-05-04T13:59:37.136Z,96204.31
2023-05-04T14:02:03.552Z,96203.84
2023-05-04T14:04:30.182Z,96194.09
2023-05-04T14:06:57.783Z,96194.44
2023-05-04T14:09:25.577Z,96190.97
2023-05-04T14:11:51.913Z,96185.78
2023-05-04T14:14:18.407Z,96182.84
2023-05-04T14:16:44.886Z,96179.97
2023-05-04T14:19:11.222Z,96181.44
2023-05-04T14:21:37.729Z,96177.13
2023-05-04T14:24:04.328Z,96181.13
2023-05-04T14:26:34.747Z,96161.91
2023-05-04T14:29:01.281Z,96170.56
2023-05-04T14:31:27.648Z,96157.72
2023-05-04T14:33:56.752Z,96162.28
2023-05-04T14:36:23.435Z,96165.09
2023-05-04T14:38:49.767Z,96156.31
2023-05-04T14:41:16.700Z,96149.53
2023-05-04T14:43:43.155Z,96152.28
2023-05-04T14:46:09.781Z,96147.56
2023-05-04T14:48:36.753Z,96137.09
2023-05-04T14:51:03.414Z,96142.31
2023-05-04T14:53:33.153Z,96141.75
2023-05-04T14:56:00.518Z,96141.16
2023-05-04T14:58:28.561Z,96140.38
2023-05-04T15:00:55.082Z,96129.63
2023-05-04T15:03:21.967Z,96138.34
2023-05-04T15:05:48.352Z,96130.06
2023-05-04T15:08:14.667Z,96120.47
2023-05-04T15:10:41.460Z,96119.88
2023-05-04T15:13:07.874Z,96125.31
2023-05-04T15:15:38.930Z,96121.19
2023-05-04T15:18:06.432Z,96128.28
2023-05-04T15:20:33.174Z,96121.63
2023-05-04T15:22:59.994Z,96118.91
2023-05-04T15:25:28.482Z,96118.09
2023-05-04T15:27:54.932Z,96115.34
2023-05-04T15:30:21.479Z,96114.03
2023-05-04T15:32:48.561Z,96111.94
2023-05-04T15:35:14.908Z,96107.44
2023-05-04T15:37:41.248Z,96116.59
2023-05-04T15:40:11.442Z,96100.94
2023-05-04T15:42:38.347Z,96104.47
2023-05-04T15:45:05.150Z,96104.69
2023-05-04T15:47:32.759Z,96103.91
2023-05-04T15:49:59.117Z,96105.50
2023-05-04T15:52:25.846Z,96102.66
2023-05-04T15:54:52.588Z,96109.50
2023-05-04T15:57:18.933Z,96103.63
2023-05-04T15:59:47.557Z,96098.81
2023-05-04T16:02:14.446Z,96098.88
2023-05-04T16:04:40.771Z,96101.22
2023-05-04T16:07:07.091Z,96092.44
2023-05-04T16:09:34.419Z,96101.63
2023-05-04T16:12:02.068Z,96092.75
2023-05-04T16:14:28.405Z,96094.81
2023-05-04T16:16:55.425Z,96093.16
2023-05-04T16:19:22.503Z,96087.06
2023-05-04T16:21:48.834Z,96091.59
2023-05-04T16:24:15.554Z,96088.41
2023-05-04T16:26:41.908Z,96086.69
2023-05-04T16:29:08.258Z,96086.28
2023-05-04T16:31:35.045Z,96086.28
2023-05-04T16:34:01.837Z,96084.19
2023-05-04T16:36:28.191Z,96083.56
2023-05-04T16:38:55.060Z,96079.34
2023-05-04T16:41:22.440Z,96084.25
2023-05-04T16:43:49.091Z,96073.56
2023-05-04T16:46:16.197Z,96070.50
2023-05-04T16:48:42.685Z,96073.22
2023-05-04T16:51:09.034Z,96073.38
2023-05-04T16:53:36.001Z,96069.34
2023-05-04T16:56:02.462Z,96072.13
2023-05-04T16:58:28.907Z,96074.84
2023-05-04T17:00:56.115Z,96077.84
2023-05-04T17:03:22.918Z,96078.38
2023-05-04T17:05:49.500Z,96086.59
2023-05-04T17:08:17.711Z,96079.91
2023-05-04T17:10:44.042Z,96079.03
2023-05-04T17:13:10.532Z,96081.47
2023-05-04T17:15:37.391Z,96077.75
2023-05-04T17:18:03.884Z,96084.50
2023-05-04T17:20:31.782Z,96083.72
2023-05-04T17:23:01.271Z,96089.06
2023-05-04T17:25:27.868Z,96087.41
2023-05-04T17:27:54.951Z,96089.06
2023-05-04T17:30:21.863Z,96090.19
2023-05-04T17:32:48.735Z,96082.13
2023-05-04T17:35:24.525Z,96088.06
2023-05-04T17:37:55.982Z,96088.03
2023-05-04T17:40:24.246Z,96095.59
2023-05-04T17:42:50.707Z,96087.47
2023-05-04T17:45:17.409Z,96080.72
2023-05-04T17:47:44.796Z,96079.16
2023-05-04T17:50:11.244Z,96086.91
2023-05-04T17:52:38.582Z,96077.19
2023-05-04T17:55:05.331Z,96068.84
2023-05-04T17:57:31.677Z,96062.69
2023-05-04T17:59:58.458Z,96063.69
2023-05-04T18:02:24.991Z,96054.75
2023-05-04T18:04:51.492Z,96046.38
2023-05-04T18:07:18.408Z,96043.09
2023-05-04T18:09:44.731Z,96026.44
2023-05-04T18:12:11.052Z,96020.75
2023-05-04T18:14:37.866Z,96003.81
2023-05-04T18:17:04.193Z,95979.34
2023-05-04T18:19:34.156Z,95978.00
2023-05-04T18:22:01.242Z,95999.16
2023-05-04T18:24:27.745Z,95997.69
2023-05-04T18:26:54.419Z,95979.06
2023-05-04T18:29:21.415Z,95973.16
2023-05-04T18:31:47.834Z,95908.44
2023-05-04T18:34:14.317Z,95869.13
2023-05-04T18:36:41.136Z,95677.78
2023-05-04T18:39:08.187Z,95629.72
2023-05-04T18:41:34.883Z,95515.22
2023-05-04T18:44:01.585Z,94946.25
2023-05-04T18:46:27.954Z,94822.63
2023-05-04T18:48:56.367Z,94727.31
2023-05-04T18:51:22.769Z,94637.91
2023-05-04T18:53:50.041Z,94533.97
2023-05-04T18:56:16.911Z,94501.63
2023-05-04T18:58:43.317Z,94427.72
2023-05-04T19:01:09.961Z,94397.03
2023-05-04T19:03:37.149Z,94278.84
2023-05-04T19:06:03.610Z,94175.38
2023-05-04T19:08:29.938Z,94426.34
2023-05-04T19:10:59.351Z,94495.44
2023-05-04T19:13:25.797Z,94524.25
2023-05-04T19:15:52.199Z,94551.13
2023-05-04T19:18:18.896Z,94569.81
2023-05-04T19:20:45.766Z,94619.56
2023-05-04T19:23:12.145Z,94636.56
2023-05-04T19:25:39.052Z,94659.28
2023-05-04T19:28:08.864Z,94680.50
2023-05-04T19:30:39.919Z,94693.66
2023-05-04T19:33:08.200Z,94700.66
2023-05-04T19:35:34.740Z,94693.78
2023-05-04T19:38:01.919Z,94723.69
2023-05-04T19:40:28.563Z,94727.19
2023-05-04T19:42:55.204Z,94724.59
2023-05-04T19:45:21.973Z,94732.66
2023-05-04T19:47:50.152Z,94722.25
2023-05-04T19:50:16.814Z,94733.22
2023-05-04T19:52:43.701Z,94736.97
2023-05-04T19:55:10.809Z,94669.22
2023-05-04T19:57:37.173Z,94676.66
2023-05-04T20:00:04.281Z,94670.78
2023-05-04T20:02:31.258Z,94678.78
2023-05-04T20:04:57.784Z,94687.00
2023-05-04T20:07:24.703Z,94702.69
2023-05-04T20:09:51.043Z,94733.53
2023-05-04T20:12:17.472Z,94793.66
2023-05-04T20:14:44.352Z,94810.66
2023-05-04T20:17:10.682Z,95081.06
2023-05-04T20:19:38.701Z,95186.06
2023-05-04T20:22:05.562Z,95270.84
2023-05-04T20:24:31.907Z,96026.31
2023-05-04T20:26:58.341Z,96085.03
2023-05-04T20:29:25.058Z,96110.44
2023-05-04T20:31:51.617Z,96132.56
2023-05-04T20:34:19.019Z,96133.47
2023-05-04T20:36:46.941Z,96150.75
2023-05-04T20:39:13.479Z,96157.31
2023-05-04T20:41:40.595Z,96164.78
2023-05-04T20:44:07.467Z,96159.94
2023-05-04T20:46:33.884Z,96193.13
2023-05-04T20:49:02.878Z,96184.59
2023-05-04T20:51:30.501Z,96185.44
2023-05-04T20:53:57.768Z,96199.44
2023-05-04T20:56:24.119Z,96204.81
2023-05-04T20:58:53.627Z,96217.94
2023-05-04T21:01:21.999Z,96229.63
2023-05-04T21:03:48.441Z,96241.34
2023-05-04T21:06:15.354Z,96249.31
2023-05-04T21:08:41.678Z,96243.41
2023-05-04T21:11:08.012Z,96252.03
2023-05-04T21:13:34.392Z,96242.66
2023-05-04T21:16:00.837Z,96239.59
2023-05-04T21:18:27.885Z,96244.81
2023-05-04T21:20:54.898Z,96241.31
2023-05-04T21:23:21.288Z,96324.09
2023-05-04T21:25:47.631Z,96307.31
2023-05-04T21:28:14.334Z,96320.00
2023-05-04T21:30:41.837Z,96336.34
2023-05-04T21:33:08.186Z,96344.94
2023-05-04T21:35:34.910Z,96341.66
2023-05-04T21:38:01.262Z,96328.81
2023-05-04T21:40:27.598Z,96301.25
2023-05-04T21:42:54.341Z,96264.94
2023-05-04T21:45:20.849Z,96276.78
2023-05-04T21:47:47.359Z,96337.22
2023-05-04T21:50:14.129Z,96310.28
2023-05-04T21:52:40.509Z,96261.09
2023-05-04T21:55:07.554Z,96263.34
2023-05-04T21:57:34.321Z,96281.91
2023-05-04T22:00:00.729Z,96292.53
2023-05-04T22:02:27.104Z,96288.25
2023-05-04T22:04:53.664Z,96298.06
2023-05-04T22:07:19.990Z,96304.59
2023-05-04T22:09:46.384Z,96320.91
2023-05-04T22:12:13.247Z,96415.31
2023-05-04T22:14:41.164Z,96426.31
2023-05-04T22:17:08.822Z,96430.16
2023-05-04T22:19:35.603Z,96442.19
2023-05-04T22:22:01.928Z,96434.59
2023-05-04T22:24:28.269Z,96346.91
2023-05-04T22:26:55.351Z,96332.25
2023-05-04T22:29:21.698Z,96342.84
2023-05-04T22:31:48.036Z,96339.16
2023-05-04T22:34:14.872Z,96224.63
2023-05-04T22:36:41.318Z,96229.91
2023-05-04T22:39:07.673Z,96242.53
2023-05-04T22:41:34.498Z,96246.59
2023-05-04T22:44:01.082Z,96271.00
2023-05-04T22:46:27.473Z,96314.81
2023-05-04T22:48:54.222Z,96352.09
2023-05-04T22:51:20.660Z,96382.00
2023-05-04T22:53:47.174Z,96401.88
2023-05-04T22:56:13.918Z,96412.69
2023-05-04T22:58:40.687Z,96426.91
2023-05-04T23:01:10.555Z,96438.91
2023-05-04T23:03:38.783Z,96463.06
2023-05-04T23:06:05.591Z,96498.06
2023-05-04T23:08:31.928Z,96511.72
2023-05-04T23:10:58.664Z,96532.09
2023-05-04T23:13:24.989Z,96542.09
2023-05-04T23:15:51.754Z,96550.78
2023-05-04T23:18:18.562Z,96575.13
2023-05-04T23:20:44.904Z,96603.34
2023-05-04T23:23:11.360Z,96584.66
2023-05-04T23:25:38.082Z,96515.44
2023-05-04T23:28:04.626Z,96556.78
2023-05-04T23:30:31.560Z,96557.16
2023-05-04T23:32:58.411Z,96589.31
2023-05-04T23:35:26.668Z,96597.25
2023-05-04T23:37:53.446Z,96608.41
2023-05-04T23:40:20.025Z,96611.34
2023-05-04T23:42:50.896Z,96624.75
2023-05-04T23:45:17.269Z,96624.09
2023-05-04T23:47:43.671Z,96627.59
2023-05-04T23:50:10.764Z,96637.00
2023-05-04T23:52:37.248Z,96664.19
2023-05-04T23:55:03.891Z,96679.41
2023-05-04T23:57:30.420Z,96688.81
2023-05-04T23:59:57.071Z,96700.50
